Skip to content

GuitarMania

List of Articles
번호 제목 글쓴이 날짜 조회 수
공지 칭구음악듣기 게시판은요.... 2 2004.04.11 77980
2104 Tansman의 Cavatina 조곡 중에서 Saraband 19 file limnz 2007.09.16 6327
2103 오빠생각 / 안형수 편곡 17 file orpheus15 2007.09.12 10989
2102 샤콘느 from Partita No.2 in D minor by J.S. Bach 52 file Jason 2007.09.11 9199
2101 Danza Brasilrea 5 file 좁은길로 2007.09.08 7242
2100 [동영상]조지윈스턴의 캐논 변주곡(새로운 편곡) 61 최병욱 2007.09.08 19250
2099 Venus(동영상) 4 야매 2007.09.07 7551
2098 내마음의 보석상자(동영상) 7 야매 2007.09.07 9612
2097 TOmmy Emmanuel-Angelina 10 file 좁은길로 2007.09.05 6695
2096 녹음은 어떻게 하나요? 2 소르초이 2007.09.05 7240
2095 가을편지 / 안형수 편곡 15 file orpheus15 2007.09.04 8428
2094 줄리아니 기타협주곡 5 file buyho 2007.09.04 7255
2093 Beautiful Dreamer(토스토) 7 file 까치 2007.08.30 9232
2092 Les Feuilles Mortes (고엽) - Joseph Kosma 20 file 고정석 2007.08.29 7890
2091 Stairway to Heaven, Classical/Unplugged version 기악 독주 7 file 2007.08.28 7476
2090 죄송한! 탕고 안 스까이 바이 로랑디앙 (조율 맞춰 재업)ㅠ 8 file buyho 2007.08.26 6449
2089 알함브라궁전의 추억 12 file 정면 2007.08.24 7756
2088 F. Sor의 인커리지먼트 18 file 바하의꿈 2007.08.24 7803
2087 헨델의 대장간변주?^^ Handel--Blacksmith Variations 19 file 바하의꿈 2007.08.23 8950
2086 망고레의 Contemplacion (깊은 그리움) 24 file 아이모레스 2007.08.22 7900
2085 Falla--ThreeCorneredHat(KimMoonHyung & Chung Sehee) 7 file 바하의꿈 2007.08.21 8274
2084 Yuichi Watanabe - Morning Dew 5 file 2007.08.21 8526
2083 Sleepers, Awake! from Cantata BWV140 9 file April 2007.08.20 6822
2082 텅 빈 놀이터 II by devilous 9 file devilous 2007.08.20 6412
2081 [동영상] Barrios - Una Limosna por el amor de Dios (최후의 트레몰로) 39 file 김상욱 2007.08.17 14296
2080 milonga 6 file 2007.08.15 9011
2079 바흐 // Choral from cantata147 arr.David Russell 31 file 진느 2007.08.14 7870
2078 Tango En Skai 11 file 좁은길로 2007.08.13 9633
2077 sunflower 14 file 한사랑 2007.08.13 7920
2076 maria luisa 6 file sky600 2007.08.12 9108
2075 Adelita 2 file sky600 2007.08.12 5442
2074 Classical Gas/Mason Williams -클래식컬 개스 23 file Jason 2007.08.10 10314
2073 Sor Etude#6 10 file 밀롱가. 2007.08.10 6755
2072 로드리고 // 고풍스런 티엔토 30 file 진느 2007.08.08 7622
2071 알베니즈-야자나무 아래에서 13 file 기타레타 2007.08.08 5874
2070 Partners in Praise / 안신영님 편곡 10 file orpheus15 2007.08.07 6522
2069 Estudio No.12 / F. Sor 13 file 이진성 2007.08.06 9248
2068 Sleeprs, Awake! 눈뜨라부르는소리있어 7 file 좁은길로 2007.08.05 7217
2067 로망스 no.1(이중주)-끌레앙 16 file 체르니 2007.08.04 13346
2066 The old rugged cross by G. Bennard 10 file Jason 2007.08.02 6549
2065 Lamento No.2 / F. Kleynjans 12 file 이진성 2007.08.01 9013
2064 클레이앙스-로망스1번(이중주) 6 file 기타레타 2007.07.30 7122
2063 부탁 김효석 2007.07.29 6704
2062 Fur Elise by L. Van Beethoven 62 file Jason 2007.07.28 9709
2061 사람이 꽃보다 아름다워~~~ 4 야매 2007.07.28 9655
2060 P. Bellinati Baiao de Gude 서울기타콰르텟 4 file sgq 2007.07.27 9181
2059 A. Piazzolla Liebertango 1 file sgq 2007.07.27 9272
2058 A. Piazzolla Oblivion(망각) 3 file sgq 2007.07.27 9569
2057 A. Piazzolla Quattro Stagioni (부에노스아이레스의 사계) 1. Primavera portend (봄) 8 file sgq 2007.07.27 7141
2056 BWV1006a Prelude 7 file 좁은길로 2007.07.27 10351
2055 (이중주) Green Sleeves 20 file niceplace 2007.07.27 9177
2054 Septiembre (Maximo Diego Pujol) 21 file 라일 2007.07.26 9193
2053 Aria no.1 - F. Kleynjans 11 file bradpitt 2007.07.24 7790
2052 유키 구라모토의 Lake Louise(새로운 편곡) 17 file 최병욱 2007.07.23 10455
2051 샤콘느 뒤에뒤부분 7 file 좁은길로 2007.07.23 6844
2050 Fantasia Arabe by Sabicas 22 file Jason 2007.07.22 6636
2049 월량대표아적심(月亮代表我的心) 29 이진성 2007.07.19 10989
2048 Variation on Theme of Mozart - F.Sor 32 file Jason 2007.07.15 7583
2047 Wonderful tonight 43 file - 情 - 2007.07.14 9677
2046 Bach - BWV1007 Prelude & Allemande 16 file 김상욱 2007.07.14 7826
2045 Pierre Bensusan - 아도니스의 정원 12 file 찬찬 2007.07.14 7186
2044 이루마의 Kiss the Rain 6 file 최병욱 2007.07.13 9415
2043 G선상의 아리아 - J.S.BACH 43 file 기타레타 2007.07.13 10027
2042 헨델의 아리아 23 file 아이모레스 2007.07.12 9468
2041 이 곡 제목이 뭔가요? 3 file -_ - 2007.07.12 6194
2040 엔커리지먼트-소르 39 file 기타레타 2007.07.11 8637
2039 Giuliani-- Rossiniana No.1 (글로빌 아트홀 실황연주) 15 file LDH 2007.07.11 7120
2038 핑거스타일- Sun dance (Kotaro Oshio) 7 file 최병욱 2007.07.11 9904
2037 하프시 팟사 완주--! 4 file 좁은길로 2007.07.10 7859
2036 도적의 노래-ibach 연주 16 file 바하의꿈 2007.07.10 7787
2035 대성당2악장 4 file 좁은길로 2007.07.09 6358
2034 이병우 - 달려 18 file 김상욱 2007.07.09 7801
2033 [영상] 엘레지 Elegie (메르츠 Mertz) 3 2007.07.09 7917
2032 brahms-theme and variations 20 file 기타레타 2007.07.09 7766
2031 소르의 마적입니다... 19 file 화가 2007.07.08 6995
2030 종소리 12 file 좁은길로 2007.07.07 7454
2029 이루마의 When the love falls 7 file 최병욱 2007.07.07 8169
2028 대성당1악장 8 file 좁은길로 2007.07.05 6402
2027 Triste Santuario by Vincent Gomez-슬픈 예배당 17 file Jason 2007.07.05 10705
2026 Kleine Romanze- L. Walker 10 file Jason 2007.07.05 6742
2025 L'HYMNE A L'AMOUR / E.PIAF 24 file April 2007.07.04 6872
2024 이노래어떤가요? Pulo do Gato(P.Bellinati) 15 file MSGr 2007.07.01 9487
2023 BWV1006a 프렐류드 3 file 좁은길로 2007.06.29 9832
2022 Agua e Vinho - Egberto Gismonti 18 file limnz 2007.06.29 9668
2021 F. Tarrega,Capricho Arabe 33 file Jason 2007.06.28 9634
2020 Koyunbaba - C. Domeniconi 25 file 진느 2007.06.27 6936
2019 쉘부르의 우산 3 file nice guy 2007.06.27 8133
2018 바흐 샤콘느 10 file 좁은길로 2007.06.26 7740
2017 리브라소나티네 3.Fuoco-롤랑디용 27 file MSGr 2007.06.21 7642
2016 fredric hand의 연습곡 1번 4 file 루하기 2007.06.21 5893
2015 유키구라모토의 Meditation 18 file 최병욱 2007.06.19 11123
2014 뱃노래 - 코스트 12 file fernando 2007.06.19 7973
2013 Romance.3번. 다시 올려요 6 file 우체국가는길 2007.06.17 10537
2012 소르 연습곡 6번 8 file niceplace 2007.06.17 7354
2011 [re] 소르 연습곡 6번-리버브를 넣어보았습니다. 1 file niceplace 2007.06.20 7090
2010 알함브라 다시녹음했습니다~ 14 file 최병욱 2007.06.16 7436
2009 Recuerdos de la Alhambra -F. Tarrega 12 file Jason 2007.06.15 8629
2008 오 솔레미오 4 file 밀롱가. 2007.06.14 8063
2007 Kiss the Rain 이루마 곡 (기타 연주) 44 file 아이모레스 2007.06.12 14412
2006 Romance.3번. 10 file 우체국가는길 2007.06.08 10085
2005 I believe 13 file orpheus15 2007.06.08 7299
Board Pagination ‹ Prev 1 ... 7 8 9 10 11 12 13 14 15 16 17 18 19 20 21 22 23 24 25 26 ... 38 Next ›
/ 38

나눔글꼴 설치 안내


이 PC에는 나눔글꼴이 설치되어 있지 않습니다.

이 사이트를 나눔글꼴로 보기 위해서는
나눔글꼴을 설치해야 합니다.

설치 취소

Designed by sketchbooks.co.kr / sketchbook5 board skin

Sketchbook5, 스케치북5

Sketchbook5, 스케치북5

Sketchbook5, 스케치북5

Sketchbook5, 스케치북5

Powered by Xpress Engine / Designed by hikaru100

abcXYZ, 세종대왕,1234

abcXYZ, 세종대왕,1234